Time;durP1;ratioP1;P1;durP2;ratioP2;P2;SDS_P1;SDS_P2;PMS_P1;PMS_P2;Temp;Humidity;BMP_temperature;BMP_pressure;BME280_temperature;BME280_humidity;BME280_pressure;Samples;Min_cycle;Max_cycle;Signal;HPM_P1;HPM_P2
2021/12/16 00:02:44;;;;;;;23.17;9.43;;;9.90;99.90;;;9.93;100.00;102806.41;5232007;28;20059;-89
2021/12/16 00:05:32;;;;;;;21.40;9.30;;;9.90;99.90;;;9.92;100.00;102799.38;5231334;28;20057;-88
2021/12/16 00:08:15;;;;;;;27.77;10.85;;;9.90;99.90;;;9.93;100.00;102802.09;5233945;28;20040;-90
2021/12/16 00:10:54;;;;;;;24.15;10.75;;;9.80;99.90;;;9.86;100.00;102799.88;5231965;28;20392;-89
2021/12/16 00:30:52;;;;;;;22.67;8.88;;;9.80;99.90;;;9.90;100.00;102817.50;5234779;28;20056;-87
2021/12/16 00:33:36;;;;;;;24.73;10.15;;;9.80;99.90;;;9.86;100.00;102819.81;5234492;28;20053;-85
2021/12/16 00:36:12;;;;;;;26.38;9.88;;;9.80;99.90;;;9.87;100.00;102813.78;5227842;28;20068;-88
2021/12/16 00:38:46;;;;;;;26.13;10.05;;;9.80;99.90;;;9.82;100.00;102805.66;5220427;28;20048;-89
2021/12/16 00:41:18;;;;;;;26.95;10.90;;;9.80;99.90;;;9.87;100.00;102817.28;5232858;28;20048;-86
2021/12/16 00:43:55;;;;;;;26.13;10.80;;;9.80;99.90;;;9.87;100.00;102817.28;5231248;28;20514;-85
2021/12/16 00:46:55;;;;;;;26.48;10.90;;;9.80;99.90;;;9.92;100.00;102817.63;5229889;28;20426;-87
2021/12/16 00:49:36;;;;;;;24.83;10.15;;;9.80;99.90;;;9.93;100.00;102809.91;5233675;28;20045;-87
2021/12/16 00:55:17;;;;;;;24.75;10.82;;;9.80;99.90;;;9.93;100.00;102817.72;5227581;28;20115;-88
2021/12/16 00:57:51;;;;;;;25.50;10.38;;;9.90;99.90;;;9.89;100.00;102810.47;5230268;28;20072;-85
2021/12/16 01:00:29;;;;;;;26.25;9.60;;;9.90;99.90;;;9.91;100.00;102813.19;5223106;28;20057;-86
2021/12/16 01:03:12;;;;;;;25.27;9.88;;;9.80;99.90;;;9.79;100.00;102797.63;5223085;28;20052;-85
2021/12/16 01:09:02;;;;;;;25.88;9.55;;;9.80;99.90;;;9.87;100.00;102814.69;5213703;28;20049;-87
2021/12/16 01:34:47;;;;;;;28.40;10.38;;;9.80;99.90;;;9.92;100.00;102841.06;5216068;28;20583;-87
2021/12/16 01:40:24;;;;;;;25.08;9.63;;;9.80;99.90;;;9.91;100.00;102834.97;5216294;28;20052;-85
2021/12/16 01:46:07;;;;;;;22.17;9.98;;;9.80;99.90;;;9.92;100.00;102848.88;5215789;28;20049;-85
2021/12/16 01:51:53;;;;;;;29.48;9.73;;;9.80;99.90;;;9.89;100.00;102844.34;5190451;28;20045;-85
2021/12/16 01:54:48;;;;;;;24.17;9.55;;;9.80;99.90;;;9.88;100.00;102846.84;5214691;28;20053;-85
2021/12/16 01:57:29;;;;;;;22.98;8.93;;;9.80;99.90;;;9.88;100.00;102855.56;5215592;28;20472;-85
2021/12/16 02:00:09;;;;;;;20.58;9.55;;;9.80;99.90;;;9.88;100.00;102855.56;5215081;28;20116;-84
2021/12/16 02:02:46;;;;;;;22.65;8.77;;;9.80;99.90;;;9.87;100.00;102858.97;5215744;28;20085;-85
2021/12/16 02:05:34;;;;;;;23.88;9.10;;;9.80;99.90;;;9.86;100.00;102856.28;5216143;28;20053;-86
2021/12/16 02:08:22;;;;;;;23.63;8.73;;;9.80;99.90;;;9.83;100.00;102849.13;5214119;28;20091;-86
2021/12/16 02:11:21;;;;;;;24.10;9.18;;;9.80;99.90;;;9.81;100.00;102847.22;5215117;28;20050;-85
2021/12/16 02:34:20;;;;;;;24.08;9.05;;;9.70;99.90;;;9.77;100.00;102843.47;5175836;28;20049;-83
2021/12/16 02:36:54;;;;;;;23.33;8.90;;;9.70;99.90;;;9.77;100.00;102840.88;5211970;28;20061;-84
2021/12/16 02:39:31;;;;;;;22.02;8.80;;;9.70;99.90;;;9.71;100.00;102832.63;5213616;28;20041;-89
2021/12/16 02:42:12;;;;;;;24.67;8.73;;;9.70;99.90;;;9.78;100.00;102842.72;5212085;28;20052;-85
2021/12/16 02:50:25;;;;;;;21.83;8.55;;;9.70;99.90;;;9.74;100.00;102840.69;5211513;28;20057;-85
2021/12/16 02:52:58;;;;;;;22.63;9.00;;;9.70;99.90;;;9.74;100.00;102832.88;5211504;28;20052;-85
2021/12/16 02:55:31;;;;;;;22.65;8.70;;;9.70;99.90;;;9.70;100.00;102828.22;5214138;28;20057;-88
2021/12/16 02:58:03;;;;;;;22.67;9.88;;;9.70;99.90;;;9.69;100.00;102836.84;5233148;28;20076;-89
2021/12/16 03:00:43;;;;;;;25.75;9.57;;;9.60;99.90;;;9.70;100.00;102842.16;5233251;28;20067;-89
2021/12/16 03:03:15;;;;;;;21.70;8.52;;;9.60;99.90;;;9.68;100.00;102846.34;5233164;28;20033;-90
2021/12/16 03:05:48;;;;;;;23.05;9.23;;;9.60;99.90;;;9.68;100.00;102850.66;5232703;28;20040;-87
2021/12/16 03:08:20;;;;;;;23.50;9.27;;;9.60;99.90;;;9.66;100.00;102847.06;5233018;28;20069;-87
2021/12/16 03:11:06;;;;;;;21.02;9.73;;;9.60;99.90;;;9.68;100.00;102855.88;5230009;28;20081;-86
2021/12/16 03:13:44;;;;;;;20.85;8.43;;;9.60;99.90;;;9.65;100.00;102850.44;5212089;28;20053;-85
2021/12/16 03:16:22;;;;;;;23.15;9.13;;;9.60;99.90;;;9.65;100.00;102850.44;5211765;28;20080;-86
2021/12/16 03:19:09;;;;;;;22.73;8.68;;;9.60;99.90;;;9.65;100.00;102855.63;5212156;28;20499;-86
2021/12/16 03:21:45;;;;;;;20.63;8.73;;;9.50;99.90;;;9.63;100.00;102854.63;5211063;28;20053;-84
2021/12/16 03:27:32;;;;;;;21.90;8.48;;;9.60;99.90;;;9.61;100.00;102864.03;5210929;28;20054;-84
2021/12/16 03:35:53;;;;;;;16.88;7.63;;;9.50;99.90;;;9.63;100.00;102857.22;5213959;28;20064;-84
2021/12/16 03:38:25;;;;;;;22.13;8.40;;;9.50;99.90;;;9.64;100.00;102859.03;5214976;28;20071;-85
2021/12/16 03:40:57;;;;;;;18.92;8.00;;;9.60;99.90;;;9.65;100.00;102853.03;5215243;28;20047;-85
2021/12/16 03:43:31;;;;;;;18.95;9.40;;;9.60;99.90;;;9.67;100.00;102849.75;5214632;28;20415;-85
2021/12/16 03:46:26;;;;;;;18.88;7.57;;;9.60;99.90;;;9.69;100.00;102857.69;5211494;28;20098;-86
2021/12/16 03:49:06;;;;;;;20.52;8.00;;;9.60;99.90;;;9.69;100.00;102852.47;5210747;28;20060;-85
2021/12/16 03:51:43;;;;;;;19.23;8.35;;;9.60;99.90;;;9.71;100.00;102856.06;5210825;28;20059;-87
2021/12/16 03:54:19;;;;;;;20.10;8.15;;;9.60;99.90;;;9.71;100.00;102856.06;5228314;28;20053;-86
2021/12/16 03:56:53;;;;;;;19.67;7.60;;;9.60;99.90;;;9.69;100.00;102868.09;5229518;28;20057;-86
2021/12/16 03:59:31;;;;;;;19.38;8.25;;;9.60;99.90;;;9.69;100.00;102861.19;5229393;28;20117;-84
2021/12/16 04:02:08;;;;;;;20.23;8.32;;;9.60;99.90;;;9.70;100.00;102859.47;5226765;28;20116;-85
2021/12/16 04:04:42;;;;;;;20.63;8.60;;;9.60;99.90;;;9.74;100.00;102861.50;5227225;28;20095;-84
2021/12/16 04:07:15;;;;;;;18.90;8.52;;;9.60;99.90;;;9.73;100.00;102855.41;5212590;28;20049;-85
2021/12/16 04:09:49;;;;;;;20.08;8.43;;;9.60;99.90;;;9.74;100.00;102857.22;5211630;28;20051;-85
2021/12/16 04:12:24;;;;;;;18.25;8.05;;;9.70;99.90;;;9.74;100.00;102867.63;5211822;28;20045;-84
2021/12/16 04:15:01;;;;;;;;;;;9.70;99.90;;;9.73;100.00;102873.63;5211842;28;20054;-84
2021/12/16 04:17:34;;;;;;;18.17;7.38;;;9.70;99.90;;;9.72;100.00;102877.03;5211491;28;19921;-85
2021/12/16 04:20:11;;;;;;;20.55;7.20;;;9.60;99.90;;;9.72;100.00;102871.84;5211925;28;20053;-85
2021/12/16 04:22:45;;;;;;;17.98;7.65;;;9.60;99.90;;;9.71;100.00;102866.50;5211577;28;20053;-85
2021/12/16 04:25:20;;;;;;;18.45;7.63;;;9.60;99.90;;;9.73;100.00;102876.25;5211719;28;20057;-84
2021/12/16 04:27:57;;;;;;;18.85;7.50;;;9.70;99.90;;;9.71;100.00;102871.69;5210666;28;20057;-85
2021/12/16 04:30:32;;;;;;;18.05;7.43;;;9.60;99.90;;;9.71;100.00;102883.03;5211493;28;20046;-85
2021/12/16 04:33:05;;;;;;;18.35;7.28;;;9.60;99.90;;;9.69;100.00;102879.41;5211156;28;20047;-83
2021/12/16 04:35:38;;;;;;;19.55;9.20;;;9.60;99.90;;;9.71;100.00;102887.31;5211085;28;20381;-84
2021/12/16 04:38:12;;;;;;;19.13;8.00;;;9.60;99.90;;;9.72;100.00;102887.47;5211536;28;20050;-84
2021/12/16 04:40:47;;;;;;;21.50;8.57;;;9.70;99.90;;;9.73;100.00;102886.66;5211337;28;20053;-83
2021/12/16 04:43:22;;;;;;;21.27;10.65;;;9.60;99.90;;;9.75;100.00;102891.97;5211709;28;20058;-83
2021/12/16 04:45:55;;;;;;;20.92;8.82;;;9.70;99.90;;;9.74;100.00;102882.34;5210964;28;20065;-84
2021/12/16 04:48:27;;;;;;;19.77;8.35;;;9.70;99.90;;;9.75;100.00;102889.38;5211963;28;20049;-85
2021/12/16 04:51:00;;;;;;;19.50;8.20;;;9.70;99.90;;;9.76;100.00;102896.38;5210967;28;20045;-85
2021/12/16 04:53:32;;;;;;;22.42;8.45;;;9.70;99.90;;;9.76;100.00;102899.00;5211659;28;20050;-85
2021/12/16 04:56:06;;;;;;;22.38;9.15;;;9.70;99.90;;;9.76;100.00;102893.78;5211449;28;20052;-85
2021/12/16 04:58:40;;;;;;;22.70;8.38;;;9.70;99.90;;;9.73;100.00;102902.28;5211255;28;20046;-85
2021/12/16 05:01:15;;;;;;;20.13;8.05;;;9.70;99.90;;;9.72;100.00;102899.59;5211490;28;20052;-85
2021/12/16 05:03:48;;;;;;;20.70;7.90;;;9.70;99.90;;;9.70;100.00;102902.06;5211168;28;20064;-85
2021/12/16 05:06:20;;;;;;;20.25;9.35;;;9.60;99.90;;;9.67;100.00;102896.63;5211922;28;20525;-85
2021/12/16 05:08:52;;;;;;;17.88;7.82;;;9.60;99.90;;;9.57;100.00;102880.22;5211366;28;20049;-85
2021/12/16 05:11:25;;;;;;;17.00;7.80;;;9.60;99.90;;;9.59;100.00;102902.09;5211401;28;20064;-84
2021/12/16 05:13:58;;;;;;;16.17;6.97;;;9.50;99.90;;;9.54;100.00;102898.25;5211765;28;20049;-83
2021/12/16 05:16:31;;;;;;;17.73;7.40;;;9.50;99.90;;;9.49;100.00;102895.31;5211026;28;20132;-86
2021/12/16 05:19:04;;;;;;;16.80;7.32;;;9.50;99.90;;;9.46;100.00;102890.78;5210962;28;20046;-83
2021/12/16 05:21:49;;;;;;;17.20;7.03;;;9.40;99.90;;;9.45;100.00;102894.19;5209867;28;20056;-85
2021/12/16 05:24:25;;;;;;;17.48;7.43;;;9.40;99.90;;;9.41;100.00;102899.97;5210539;28;20060;-86
2021/12/16 05:27:01;;;;;;;16.90;7.40;;;9.40;99.90;;;9.38;100.00;102891.91;5211047;28;20057;-84
2021/12/16 05:29:34;;;;;;;20.98;8.30;;;9.30;99.90;;;9.35;100.00;102888.19;5213773;28;20048;-84
2021/12/16 05:32:08;;;;;;;20.90;8.10;;;9.30;99.90;;;9.36;100.00;102883.09;5214267;28;20053;-85
2021/12/16 05:34:40;;;;;;;18.70;8.40;;;9.30;99.90;;;9.40;100.00;102890.34;5214507;28;20052;-84
2021/12/16 05:37:13;;;;;;;21.05;9.00;;;9.30;99.90;;;9.44;100.00;102900.16;5214774;28;20050;-86
2021/12/16 05:39:46;;;;;;;21.40;8.63;;;9.40;99.90;;;9.48;100.00;102891.81;5213700;28;20053;-85
2021/12/16 05:42:18;;;;;;;21.77;8.27;;;9.40;99.90;;;9.51;100.00;102894.59;5214661;28;20054;-84
2021/12/16 05:44:50;;;;;;;21.50;8.77;;;9.40;99.90;;;9.54;100.00;102887.84;5214114;28;20045;-84
2021/12/16 05:47:24;;;;;;;21.92;9.85;;;9.50;99.90;;;9.54;100.00;102898.25;5214644;28;20046;-84
2021/12/16 05:49:56;;;;;;;21.08;8.57;;;9.50;99.90;;;9.56;100.00;102897.56;5214709;28;20052;-84
2021/12/16 05:52:28;;;;;;;23.92;9.73;;;9.50;99.90;;;9.52;100.00;102906.88;5215060;28;20044;-86
2021/12/16 05:55:00;;;;;;;19.92;8.52;;;9.50;99.90;;;9.55;100.00;102916.59;5314247;22;20041;-72
2021/12/16 05:57:32;;;;;;;24.70;8.95;;;9.50;99.90;;;9.56;100.00;102917.50;5206503;28;20061;-72
2021/12/16 06:00:09;;;;;;;20.48;8.63;;;9.50;99.90;;;9.56;100.00;102917.50;5207089;28;20041;-72
2021/12/16 06:02:43;;;;;;;20.33;7.57;;;9.50;99.90;;;9.57;100.00;102929.72;5207555;28;20053;-71
2021/12/16 06:05:16;;;;;;;20.13;8.15;;;9.50;99.90;;;9.56;100.00;102921.00;5206817;28;20055;-70
2021/12/16 06:07:48;;;;;;;19.52;8.55;;;9.50;99.90;;;9.56;100.00;102925.31;5207144;28;20049;-72
2021/12/16 06:10:55;;;;;;;18.38;7.72;;;9.50;99.90;;;9.56;100.00;102927.91;5206850;28;20061;-72
2021/12/16 06:13:26;;;;;;;18.08;7.43;;;9.50;99.90;;;9.57;100.00;102924.50;5206715;28;20053;-73
2021/12/16 06:22:23;;;;;;;20.55;8.70;;;9.50;99.90;;;9.57;100.00;102940.13;5206783;28;20460;-72
2021/12/16 06:27:26;;;;;;;22.40;7.65;;;9.50;99.90;;;9.59;100.00;102955.09;5206774;28;20057;-73
2021/12/16 06:29:59;;;;;;;19.27;7.45;;;9.50;99.90;;;9.57;100.00;102956.66;5206913;28;20099;-72
2021/12/16 06:32:31;;;;;;;19.15;7.78;;;9.50;99.90;;;9.57;100.00;102961.84;5206864;28;20081;-72
2021/12/16 06:35:07;;;;;;;21.40;8.57;;;9.50;99.90;;;9.58;100.00;102967.97;5205547;28;20057;-72
2021/12/16 06:37:40;;;;;;;21.35;8.02;;;9.50;99.90;;;9.57;100.00;102966.16;5206465;28;20051;-71
2021/12/16 06:40:13;;;;;;;24.60;9.27;;;9.50;99.90;;;9.59;100.00;102962.00;5206236;28;20047;-72
2021/12/16 06:42:47;;;;;;;25.10;9.07;;;9.50;99.90;;;9.58;100.00;102962.75;5206511;28;20049;-72
2021/12/16 06:45:21;;;;;;;19.85;8.35;;;9.50;99.90;;;9.57;100.00;102969.66;5205834;28;20049;-72
2021/12/16 06:47:58;;;;;;;22.00;8.52;;;9.50;99.90;;;9.55;100.00;102971.28;5206666;28;20486;-73
2021/12/16 06:50:41;;;;;;;25.15;9.25;;;9.50;99.90;;;9.56;100.00;102969.56;5206398;28;20486;-70
2021/12/16 06:53:20;;;;;;;38.33;12.55;;;9.50;99.90;;;9.52;100.00;102982.38;5206239;28;20053;-72
2021/12/16 06:56:01;;;;;;;34.17;12.20;;;9.50;99.90;;;9.52;100.00;102974.56;5205740;28;20426;-71
2021/12/16 06:58:37;;;;;;;34.03;12.65;;;9.50;99.90;;;9.49;100.00;102981.22;5206208;28;20465;-69
2021/12/16 07:01:19;;;;;;;38.25;13.32;;;9.50;99.90;;;9.46;100.00;102983.63;5205888;28;20053;-70
2021/12/16 07:03:51;;;;;;;38.65;13.13;;;9.40;99.90;;;9.42;100.00;102985.09;5205982;28;20049;-70
2021/12/16 07:06:30;;;;;;;34.88;12.32;;;9.40;99.90;;;9.38;100.00;102984.72;5205905;28;20570;-69
2021/12/16 07:09:11;;;;;;;28.70;10.93;;;9.30;99.90;;;9.33;100.00;102986.09;5205894;28;20069;-70
2021/12/16 07:11:49;;;;;;;26.05;9.38;;;9.30;99.90;;;9.27;100.00;102990.84;5205994;28;20049;-70
2021/12/16 07:14:34;;;;;;;28.52;10.55;;;9.20;99.90;;;9.20;100.00;102989.50;5205414;28;20410;-69
2021/12/16 07:17:08;;;;;;;28.85;11.68;;;9.20;99.90;;;9.15;100.00;103001.25;5205711;28;20050;-70
2021/12/16 07:19:43;;;;;;;25.75;10.32;;;9.20;99.90;;;9.10;100.00;102997.38;5205795;28;20490;-70
2021/12/16 07:22:16;;;;;;;25.95;10.57;;;9.10;99.90;;;9.07;100.00;102991.97;5205585;28;20478;-69
2021/12/16 07:24:48;;;;;;;30.05;10.38;;;9.10;99.90;;;9.05;100.00;102996.13;5205050;28;20058;-70
2021/12/16 07:27:20;;;;;;;28.55;10.63;;;9.10;99.90;;;9.02;100.00;102993.31;5205502;28;20482;-69
2021/12/16 07:29:52;;;;;;;26.98;10.23;;;9.10;99.90;;;9.03;100.00;103000.31;5205092;28;20049;-69
2021/12/16 07:32:24;;;;;;;25.42;9.90;;;9.00;99.90;;;9.00;100.00;103002.66;5205499;28;20510;-69
2021/12/16 07:34:56;;;;;;;24.42;10.23;;;9.00;99.90;;;8.95;100.00;103018.84;5205098;28;20429;-69
2021/12/16 07:37:29;;;;;;;25.15;9.00;;;9.00;99.90;;;8.87;100.00;103022.56;5205477;28;20072;-69
2021/12/16 07:40:06;;;;;;;28.38;9.52;;;8.90;99.90;;;8.80;100.00;103019.34;5205265;28;20045;-71
2021/12/16 07:42:46;;;;;;;27.90;10.20;;;8.80;99.90;;;8.72;100.00;103021.34;5205107;28;20054;-70
2021/12/16 07:45:19;;;;;;;25.27;10.15;;;8.70;99.90;;;8.67;100.00;103035.69;5204983;28;20452;-70
2021/12/16 07:47:51;;;;;;;27.98;10.43;;;8.70;99.90;;;8.65;100.00;103032.06;5205657;28;20421;-73
2021/12/16 07:50:24;;;;;;;26.50;9.75;;;8.60;99.90;;;8.62;100.00;103031.84;5204453;28;20080;-70
2021/12/16 07:52:58;;;;;;;26.85;9.45;;;8.60;99.90;;;8.63;100.00;103038.84;5204905;28;20041;-69
2021/12/16 07:55:30;;;;;;;31.48;9.75;;;8.60;99.90;;;8.66;100.00;103049.50;5204474;28;20051;-69
2021/12/16 07:58:04;;;;;;;27.23;9.30;;;8.60;99.90;;;8.69;100.00;103052.34;5205125;28;20053;-72
2021/12/16 08:00:37;;;;;;;26.33;9.50;;;8.60;99.90;;;8.72;100.00;103055.16;5205077;28;20053;-69
2021/12/16 08:03:13;;;;;;;24.67;9.32;;;8.70;99.90;;;8.75;100.00;103054.53;5204819;28;20053;-70
2021/12/16 08:05:53;;;;;;;25.65;9.20;;;8.70;99.90;;;8.76;100.00;103052.03;5203198;28;20049;-70
2021/12/16 08:08:27;;;;;;;24.08;9.18;;;8.70;99.90;;;8.80;100.00;103051.50;5204013;28;20510;-70
2021/12/16 08:10:59;;;;;;;26.02;10.02;;;8.70;99.90;;;8.83;100.00;103058.63;5203497;28;20056;-70
2021/12/16 08:13:31;;;;;;;24.98;9.23;;;8.80;99.90;;;8.86;100.00;103057.13;5202330;28;20051;-69
2021/12/16 08:16:04;;;;;;;29.25;9.93;;;8.80;99.90;;;8.88;100.00;103063.38;5203087;28;20045;-70
2021/12/16 08:18:37;;;;;;;28.75;10.07;;;8.80;99.90;;;8.90;100.00;103061.81;5204420;28;20054;-69
2021/12/16 08:21:09;;;;;;;29.02;10.75;;;8.80;99.90;;;8.92;100.00;103062.81;5203467;28;20049;-70
2021/12/16 08:23:44;;;;;;;31.17;10.52;;;8.90;99.90;;;8.95;100.00;103064.78;5202416;28;20447;-70
2021/12/16 08:26:17;;;;;;;27.65;10.23;;;8.90;99.90;;;8.97;100.00;103071.91;5203779;28;20048;-70
2021/12/16 08:28:49;;;;;;;26.35;9.70;;;8.90;99.90;;;9.04;100.00;103064.56;5209985;28;20045;-70
2021/12/16 08:31:22;;;;;;;31.52;11.02;;;9.00;99.90;;;9.09;100.00;103071.94;5225574;28;20041;-69
2021/12/16 08:33:54;;;;;;;25.98;9.38;;;9.00;99.90;;;9.14;100.00;103085.31;5224641;28;20045;-70
2021/12/16 08:36:28;;;;;;;29.90;9.55;;;9.10;99.90;;;9.17;100.00;103083.84;5225615;28;20050;-71
2021/12/16 08:39:03;;;;;;;30.00;10.38;;;9.10;99.90;;;9.21;100.00;103090.19;5225610;28;20059;-71
2021/12/16 08:41:40;;;;;;;33.75;10.07;;;9.10;99.90;;;9.25;100.00;103076.59;5224968;28;20057;-70
2021/12/16 08:44:12;;;;;;;31.90;10.52;;;9.10;99.90;;;9.28;100.00;103089.88;5224500;28;20049;-70
2021/12/16 08:47:11;;;;;;;30.85;11.00;;;9.20;99.90;;;9.30;100.00;103085.69;5225058;28;20060;-70
2021/12/16 08:49:43;;;;;;;31.92;10.60;;;9.20;99.90;;;9.34;100.00;103090.34;5225076;28;20494;-71
2021/12/16 08:52:21;;;;;;;29.00;10.68;;;9.30;99.90;;;9.38;100.00;103087.16;5224905;28;20052;-71
2021/12/16 08:54:55;;;;;;;35.88;11.07;;;9.30;99.90;;;9.42;100.00;103086.63;5224957;28;20055;-70
2021/12/16 08:57:28;;;;;;;31.77;11.13;;;9.30;99.90;;;9.50;100.00;103095.00;5225107;28;20610;-71
2021/12/16 09:00:00;;;;;;;30.67;11.35;;;9.40;99.90;;;9.57;100.00;103086.84;5225230;28;20151;-71
2021/12/16 09:02:32;;;;;;;25.23;10.43;;;9.40;99.90;;;9.62;100.00;103098.53;5226996;28;20048;-71
2021/12/16 09:05:06;;;;;;;28.83;10.65;;;9.50;99.90;;;10.20;100.00;103089.81;5229356;28;20060;-71
2021/12/16 09:07:38;;;;;;;29.90;11.20;;;9.90;99.90;;;10.40;100.00;103091.28;5229032;28;20055;-71
2021/12/16 09:10:20;;;;;;;28.27;10.18;;;10.20;99.90;;;10.31;100.00;103098.47;5229064;28;20049;-71
2021/12/16 09:13:02;;;;;;;13.40;5.57;;;10.30;99.90;;;10.25;100.00;103100.63;5229143;28;20460;-70
2021/12/16 09:15:38;;;;;;;15.10;5.78;;;10.30;99.90;;;11.33;100.00;103096.91;5228907;28;20063;-70
2021/12/16 09:18:12;;;;;;;15.63;6.65;;;11.10;99.90;;;12.33;98.53;103099.25;5229075;28;20056;-71
2021/12/16 09:20:45;;;;;;;23.92;10.45;;;12.20;99.90;;;13.02;90.02;103099.22;5228998;28;20474;-71
2021/12/16 09:23:17;;;;;;;23.23;10.30;;;13.00;99.90;;;13.02;85.63;103109.69;5228593;28;20059;-71
2021/12/16 09:25:51;;;;;;;27.40;10.85;;;13.20;99.90;;;12.65;85.27;103122.19;5228730;28;20130;-69
2021/12/16 09:28:25;;;;;;;28.85;11.05;;;12.90;99.90;;;12.25;85.95;103137.03;5228719;28;20045;-71
2021/12/16 09:30:57;;;;;;;25.15;10.82;;;12.60;99.90;;;11.88;87.09;103139.88;5228643;28;20442;-71
2021/12/16 09:33:29;;;;;;;30.20;13.00;;;12.20;99.90;;;11.60;88.31;103145.78;5228281;28;20059;-71
2021/12/16 09:36:02;;;;;;;30.77;13.40;;;11.90;99.90;;;11.41;89.71;103148.00;5228460;28;20056;-71
2021/12/16 09:38:35;;;;;;;33.75;13.73;;;11.60;99.90;;;11.28;90.69;103155.75;5228943;28;20485;-71
2021/12/16 09:41:09;;;;;;;33.13;12.85;;;11.40;99.90;;;11.18;91.51;103153.31;5228735;28;20052;-71
2021/12/16 09:43:47;;;;;;;33.25;13.68;;;11.20;99.90;;;11.07;92.05;103150.84;5228520;28;20409;-71
2021/12/16 09:46:23;;;;;;;32.33;12.30;;;11.10;99.90;;;11.01;92.86;103154.72;5228605;28;20053;-71
2021/12/16 09:48:57;;;;;;;37.70;12.43;;;11.00;99.90;;;10.96;93.36;103157.03;5228546;28;20049;-71
2021/12/16 09:51:33;;;;;;;38.83;12.60;;;10.90;99.90;;;10.90;93.80;103164.44;5228277;28;20053;-70
2021/12/16 09:54:10;;;;;;;32.45;12.75;;;10.90;99.90;;;10.85;94.33;103171.91;5228519;28;20049;-71
2021/12/16 09:56:47;;;;;;;38.08;12.05;;;10.80;99.90;;;10.83;94.70;103163.09;5228485;28;20140;-70
2021/12/16 09:59:22;;;;;;;33.00;12.57;;;10.80;99.90;;;10.82;94.88;103163.88;5228411;28;20060;-71
2021/12/16 10:01:58;;;;;;;35.88;13.25;;;10.70;99.90;;;10.83;95.04;103164.78;5228246;28;20049;-71
2021/12/16 10:04:32;;;;;;;36.00;13.23;;;10.70;99.90;;;10.84;95.40;103166.59;5228218;28;20497;-71
2021/12/16 10:07:11;;;;;;;38.45;13.63;;;10.70;99.90;;;10.86;95.44;103165.00;5228672;28;20048;-71
2021/12/16 10:09:45;;;;;;;37.42;13.75;;;10.70;99.90;;;10.88;95.84;103160.78;5228551;28;20094;-71
2021/12/16 10:12:25;;;;;;;41.65;13.73;;;10.70;99.90;;;10.90;95.90;103159.22;5228124;28;20049;-70
2021/12/16 10:17:22;;;;;;;40.25;13.55;;;10.70;99.90;;;10.90;96.10;103155.69;5227077;28;20061;-71
2021/12/16 10:18:04;;;;;;;40.90;14.93;;;10.70;99.90;;;10.91;96.29;103157.50;5228146;28;20501;-70
2021/12/16 10:20:43;;;;;;;42.95;14.40;;;10.70;99.90;;;10.94;96.59;103157.72;5228214;28;20057;-71
2021/12/16 10:23:19;;;;;;;37.95;14.40;;;10.80;99.90;;;10.98;96.96;103165.88;5228414;28;20416;-71
2021/12/16 10:25:55;;;;;;;43.22;15.35;;;10.80;99.90;;;11.00;96.93;103156.44;5227741;28;20049;-71
2021/12/16 10:28:31;;;;;;;45.75;14.57;;;10.80;99.90;;;11.03;97.10;103160.97;5227890;28;20057;-70
2021/12/16 10:31:07;;;;;;;44.08;14.57;;;10.80;99.90;;;11.05;97.09;103160.28;5228389;28;20055;-71
2021/12/16 10:33:44;;;;;;;52.83;17.13;;;10.90;99.90;;;11.04;97.03;103155.88;5228130;28;20132;-71
2021/12/16 10:36:19;;;;;;;43.42;15.70;;;10.90;99.90;;;11.05;97.10;103148.94;5227985;28;20077;-70
2021/12/16 10:38:55;;;;;;;52.00;17.73;;;10.90;99.90;;;11.09;96.83;103154.50;5228073;28;20413;-71
2021/12/16 10:41:31;;;;;;;48.38;16.95;;;10.90;99.90;;;11.12;96.74;103148.56;5227653;28;20056;-71
2021/12/16 10:44:10;;;;;;;55.40;18.35;;;10.90;99.90;;;11.17;96.85;103147.19;5227315;28;20587;-70
2021/12/16 10:46:45;;;;;;;51.45;17.45;;;10.90;99.90;;;11.20;96.35;103143.88;5227924;28;20051;-70
2021/12/16 10:49:24;;;;;;;50.50;16.88;;;11.00;99.90;;;11.22;96.11;103144.91;5227678;28;20057;-70
2021/12/16 10:52:01;;;;;;;55.03;18.77;;;11.00;99.90;;;11.24;95.78;103148.53;5227181;28;20091;-70
2021/12/16 10:54:37;;;;;;;50.95;18.17;;;11.00;99.90;;;11.26;95.46;103141.69;5227491;28;20134;-74
2021/12/16 10:57:12;;;;;;;53.20;17.13;;;11.00;99.90;;;11.31;95.30;103138.59;5227588;28;20041;-70
2021/12/16 10:59:49;;;;;;;57.33;19.10;;;11.10;99.90;;;11.39;95.48;103139.13;5227152;28;20061;-69
2021/12/16 11:02:23;;;;;;;62.65;18.63;;;11.10;99.90;;;11.47;95.25;103134.41;5226963;28;20060;-70
2021/12/16 11:05:00;;;;;;;55.40;17.67;;;11.20;99.90;;;11.51;94.65;103139.06;5226964;28;20045;-70
2021/12/16 11:07:36;;;;;;;53.33;19.00;;;11.20;99.90;;;11.56;94.53;103128.13;5227278;28;20049;-70
2021/12/16 11:10:13;;;;;;;48.75;17.23;;;11.30;99.90;;;11.61;94.04;103131.97;5226819;28;20063;-73
2021/12/16 11:12:49;;;;;;;47.55;17.38;;;11.30;99.90;;;11.64;93.95;103126.94;5226777;28;20049;-71
2021/12/16 11:15:28;;;;;;;54.28;17.40;;;11.40;99.90;;;11.66;93.36;103133.16;5227289;28;20132;-69
2021/12/16 11:18:08;;;;;;;47.67;16.35;;;11.40;99.90;;;11.66;93.20;103129.63;5226843;28;20045;-69
2021/12/16 11:20:44;;;;;;;50.97;16.30;;;11.40;99.90;;;11.65;92.84;103125.22;5227239;28;20049;-70
2021/12/16 11:23:21;;;;;;;53.08;17.38;;;11.40;99.90;;;11.69;92.76;103140.31;5227113;28;20044;-70
2021/12/16 11:25:56;;;;;;;46.08;15.55;;;11.40;99.90;;;11.72;92.95;103139.59;5226456;28;20049;-70
2021/12/16 11:28:33;;;;;;;50.08;17.17;;;11.50;99.90;;;11.73;92.98;103136.19;5226877;28;20492;-70
2021/12/16 11:31:09;;;;;;;46.75;16.27;;;11.50;99.90;;;11.75;92.73;103147.66;5226190;28;20056;-71
2021/12/16 11:33:46;;;;;;;46.33;16.02;;;11.50;99.90;;;11.77;92.93;103144.34;5226685;28;20059;-71
2021/12/16 11:36:21;;;;;;;49.97;16.60;;;11.50;99.90;;;11.77;92.94;103148.66;5226713;28;20080;-70
2021/12/16 11:38:59;;;;;;;44.50;16.25;;;11.50;99.90;;;11.73;92.65;103138.78;5226520;28;20107;-69
2021/12/16 11:41:35;;;;;;;48.42;17.58;;;11.50;99.90;;;11.68;92.73;103146.34;5226671;28;20052;-70
2021/12/16 11:44:16;;;;;;;43.70;15.68;;;11.50;99.90;;;11.64;92.88;103155.66;5225376;28;20053;-69
2021/12/16 11:46:55;;;;;;;43.58;14.15;;;11.50;99.90;;;11.59;93.33;103154.44;5226145;28;20136;-71
2021/12/16 11:49:33;;;;;;;41.67;17.55;;;11.40;99.90;;;11.56;93.16;103149.03;5226143;28;20374;-70
2021/12/16 11:52:08;;;;;;;48.00;16.67;;;11.40;99.90;;;11.52;93.33;103149.59;5225720;28;20056;-70
2021/12/16 11:54:46;;;;;;;48.20;16.13;;;11.40;99.90;;;11.53;93.24;103147.88;5293643;22;20069;-87
2021/12/16 11:57:23;;;;;;;22.52;7.63;;;11.40;99.90;;;11.63;94.95;103146.03;5199286;28;20057;-81
2021/12/16 12:00:06;;;;;;;48.47;16.58;;;11.40;99.90;;;11.88;94.15;103146.00;5210480;28;20063;-86
2021/12/16 12:02:44;;;;;;;46.92;15.70;;;11.70;99.90;;;11.74;92.32;103138.00;5211496;28;20056;-87
2021/12/16 12:05:23;;;;;;;43.20;15.10;;;11.70;99.90;;;11.70;91.85;103142.13;5213092;28;20056;-87
2021/12/16 12:07:59;;;;;;;42.85;16.70;;;11.70;99.90;;;11.66;92.31;103140.97;5213280;28;20478;-87
2021/12/16 12:10:41;;;;;;;46.30;16.70;;;11.60;99.90;;;11.65;92.26;103146.13;5209946;28;20282;-87
2021/12/16 12:13:18;;;;;;;48.90;15.52;;;11.60;99.90;;;11.63;92.50;103146.03;5210320;28;20052;-86
2021/12/16 12:16:01;;;;;;;48.03;15.68;;;11.60;99.90;;;11.62;92.46;103138.09;5210625;28;20056;-88
2021/12/16 12:18:40;;;;;;;44.15;15.10;;;11.50;99.90;;;11.63;92.56;103135.56;5209832;28;20053;-88
2021/12/16 12:21:29;;;;;;;46.03;15.27;;;11.50;99.90;;;11.64;92.84;103131.25;5210770;28;20064;-87
2021/12/16 12:24:08;;;;;;;46.95;18.15;;;11.50;99.90;;;11.66;93.10;103135.75;5210875;28;20416;-87
2021/12/16 12:26:44;;;;;;;49.08;17.50;;;11.50;99.90;;;11.66;93.02;103140.97;5212120;28;20485;-87